Terminal Aerodrome Forecast
Issued by NWS Cleveland, OH

Home | Current Version | Previous Version | Text Only | Print | Product List | Glossary Off
Versions: 1 2 3 4 5 6 7 8 9 10 11 12 13 14 15 16 17 18 19

455
FTUS41 KCLE 272332
TAFCAK
TAF
KCAK 272332Z 2800/2824 04006KT P6SM OVC200
     FM280700 06010KT P6SM OVC080
     FM281000 06012KT 4SM -SHRA BR OVC025
     FM281300 08012KT P6SM OVC015
     FM281500 09010KT 2SM -RA BR OVC007
     FM281700 05006KT 6SM BR OVC007=

USA.gov is the U.S. government's official web portal to all federal, state and local government web resources and services.